Sequim, WA

2:59 AM PDT on May 26, 2015 (GMT -0700)
Whidbey Island Naval Air Station | | Change Station
CLOSE
Current Station
Airport
Location: Whidbey Island,
Elevation: 46 ft
Nearby Weather Stations

Elev 46 ft 48.35 °N, 122.66 °W | Updated 3 minutes ago

Overcast
Overcast
55 °F
Feels Like 55 °F
N
0
Wind Variable Wind from North

Today
High -- | Low -- °F
--% Chance of Precip.
Yesterday
High -- | Low -- °F
Precip. -- in
5:21 AM 8:58 PM
First Quarter, 56% visible
Pressure 30.07 in
Visibility 10.0 miles
Clouds Scattered Clouds 3000 ft
Mostly Cloudy 6500 ft
Overcast 9000 ft
Dew Point 52 °F
Humidity 89%
Rainfall 0.00 in
Snow Depth Not available.
UV 0 out of 12
Pollen 7.70 out of 12
Air Quality Not available.
Flu Activity Sporadic
METAR KNUW 260956Z 00000KT 10SM SCT030 BKN065 OVC090 13/11 A3007 RMK AO2 SLP181 T01280111 $

More Conditions Fewer Conditions

Pressure 30.07 in
Visibility 10.0 miles
Clouds Scattered Clouds 3000 ft
Mostly Cloudy 6500 ft
Overcast 9000 ft
Dew Point 52 °F
Humidity 89%
Rainfall 0.00 in
Snow Depth Not available.
UV 0 out of 12
Pollen 7.70 out of 12
Air Quality Not available.
Flu Activity Sporadic
METAR KNUW 260956Z 00000KT 10SM SCT030 BKN065 OVC090 13/11 A3007 RMK AO2 SLP181 T01280111 $

More Conditions Fewer Conditions

10-Day Weather Forecast

Almanac

Astronomy

May. 26, 2015 Rise Set
Actual Time
Civil Twilight
Nautical Twilight
Astronomical Twilight
Moon
Length of Visible Light
Length of Day
Tomorrow will be .
, % of the Moon is Illuminated

Today's Extremes

State Highs State Lows

Community

WunderPhotos

Upload Photos

1,824,302 photos uploaded!

WunderBlogs® & News

Nearby

Air Quality

  Air Quality AQ Index Pollutant
Not available.

Snow Depth

Station Depth Elevation

Earthquake Activity

City Distance Mag. Time & Date
Minimum magnitude displayed is 2.5.

Coastal Water Temperatures

Place Temperature

Stations

Nearby Weather Stations

Station Location Temp. Windchill Dew Point Humidity Wind Precip. Elev Updated Type